createdAt,value
2022-08-14T00:01:36.490Z,55.44
2022-08-14T00:03:41.241Z,55.08
2022-08-14T00:05:46.520Z,58.45
2022-08-14T00:07:51.270Z,55.94
2022-08-14T00:10:49.680Z,56.04
2022-08-14T00:12:23.602Z,57.65
2022-08-14T00:14:29.462Z,56.45
2022-08-14T00:16:40.975Z,56.86
2022-08-14T00:19:06.478Z,57.75
2022-08-14T00:21:12.908Z,56.52
2022-08-14T00:23:18.795Z,57.08
2022-08-14T00:25:22.537Z,58.06
2022-08-14T00:27:26.428Z,58.98
2022-08-14T00:29:40.669Z,59.61
2022-08-14T00:31:46.896Z,58.67
2022-08-14T00:34:36.706Z,56.82
2022-08-14T00:36:35.844Z,57.73
2022-08-14T00:38:51.783Z,58.58
2022-08-14T00:40:57.053Z,59.54
2022-08-14T00:43:01.877Z,59.94
2022-08-14T00:45:11.460Z,62.31
2022-08-14T00:47:18.594Z,59.96
2022-08-14T00:49:22.358Z,62.49
2022-08-14T00:51:34.657Z,61.63
2022-08-14T00:53:51.100Z,63.17
2022-08-14T00:55:58.694Z,64.12
2022-08-14T00:58:27.823Z,62.61
2022-08-14T01:00:47.189Z,62.91
2022-08-14T01:02:58.792Z,64.67
2022-08-14T01:05:03.936Z,64.36
2022-08-14T01:07:09.119Z,63.78
2022-08-14T01:09:13.937Z,66.01
2022-08-14T01:11:19.693Z,65.97
2022-08-14T01:13:42.552Z,66.32
2022-08-14T01:15:58.245Z,66.45
2022-08-14T01:18:25.136Z,66.02
2022-08-14T01:20:50.314Z,67.24
2022-08-14T01:22:55.140Z,67.63
2022-08-14T01:24:58.918Z,68.14
2022-08-14T01:27:02.670Z,68.41
2022-08-14T01:29:10.987Z,68.62
2022-08-14T01:31:20.924Z,68.49
2022-08-14T01:33:30.445Z,68.83
2022-08-14T01:36:03.396Z,69.49
2022-08-14T01:38:12.557Z,69.75
2022-08-14T01:40:20.075Z,68.84
2022-08-14T01:42:36.070Z,68.50
2022-08-14T01:44:41.241Z,69.27
2022-08-14T01:46:49.135Z,69.61
2022-08-14T01:49:07.572Z,69.18
2022-08-14T01:51:19.970Z,69.18
2022-08-14T01:53:24.619Z,70.21
2022-08-14T01:55:35.944Z,70.34
2022-08-14T01:58:01.823Z,71.08
2022-08-14T02:00:18.165Z,71.72
2022-08-14T02:02:21.944Z,72.08
2022-08-14T02:04:54.935Z,72.10
2022-08-14T02:06:56.689Z,73.30
2022-08-14T02:09:01.356Z,73.20
2022-08-14T02:11:18.534Z,73.98
2022-08-14T02:13:24.145Z,74.23
2022-08-14T02:15:32.108Z,74.93
2022-08-14T02:17:36.407Z,75.16
2022-08-14T02:19:42.019Z,75.42
2022-08-14T02:21:50.403Z,75.40
2022-08-14T02:23:55.388Z,75.81
2022-08-14T02:26:24.369Z,76.74
2022-08-14T02:28:57.438Z,77.06
2022-08-14T02:30:52.483Z,77.15
2022-08-14T02:32:56.392Z,77.47
2022-08-14T02:35:04.862Z,78.23
2022-08-14T02:37:11.166Z,78.64
2022-08-14T02:39:16.428Z,78.70
2022-08-14T02:41:27.351Z,79.28
2022-08-14T02:43:37.258Z,80.14
2022-08-14T02:45:50.593Z,80.50
2022-08-14T02:47:57.525Z,80.90
2022-08-14T02:50:01.290Z,81.48
2022-08-14T02:52:56.879Z,82.28
2022-08-14T02:54:32.602Z,82.34
2022-08-14T02:57:14.327Z,82.78
2022-08-14T02:59:05.437Z,84.09
2022-08-14T03:01:10.854Z,83.59
2022-08-14T03:03:18.366Z,83.75
2022-08-14T03:05:24.906Z,84.38
2022-08-14T03:07:29.186Z,84.40
2022-08-14T03:10:25.028Z,84.83
2022-08-14T03:11:58.361Z,85.26
2022-08-14T03:14:02.976Z,85.03
2022-08-14T03:16:20.280Z,84.80
2022-08-14T03:18:32.740Z,84.67
2022-08-14T03:20:37.001Z,85.04
2022-08-14T03:22:41.843Z,84.53
2022-08-14T03:24:45.917Z,84.91
2022-08-14T03:26:57.492Z,85.12
2022-08-14T03:29:03.251Z,86.01
2022-08-14T03:31:13.207Z,86.16
2022-08-14T03:33:19.790Z,85.00
2022-08-14T03:35:24.373Z,86.16
2022-08-14T03:39:10.793Z,86.92
2022-08-14T03:40:07.478Z,88.02
2022-08-14T03:42:19.572Z,88.56
2022-08-14T03:45:18.747Z,88.42
2022-08-14T03:46:54.494Z,88.66
2022-08-14T03:48:59.213Z,89.10
2022-08-14T03:51:05.182Z,89.57
2022-08-14T03:53:15.070Z,89.96
2022-08-14T03:55:20.562Z,90.13
2022-08-14T03:57:24.947Z,91.22
2022-08-14T03:59:29.330Z,91.09
2022-08-14T04:01:39.013Z,91.12
2022-08-14T04:03:47.394Z,91.14
2022-08-14T04:06:21.166Z,91.15
2022-08-14T04:08:31.131Z,91.49
2022-08-14T04:10:36.085Z,90.91
2022-08-14T04:12:51.677Z,90.55
2022-08-14T04:14:56.287Z,92.30
2022-08-14T04:16:59.986Z,92.01
2022-08-14T04:19:09.760Z,93.73
2022-08-14T04:21:14.887Z,93.80
2022-08-14T04:23:23.521Z,94.90
2022-08-14T04:25:35.760Z,95.13
2022-08-14T04:28:01.589Z,95.74
2022-08-14T04:30:06.774Z,95.24
2022-08-14T04:33:01.417Z,96.55
2022-08-14T04:34:36.414Z,97.36
2022-08-14T04:37:00.338Z,98.26
2022-08-14T04:39:33.181Z,99.14
2022-08-14T04:41:55.428Z,99.94
2022-08-14T04:44:03.337Z,100.00
2022-08-14T04:46:11.905Z,100.00
2022-08-14T04:48:39.394Z,100.00
2022-08-14T04:50:49.007Z,100.00
2022-08-14T04:52:58.087Z,100.00
2022-08-14T04:55:03.214Z,99.97
2022-08-14T04:57:10.415Z,100.00
2022-08-14T04:59:14.708Z,100.00
2022-08-14T05:01:19.523Z,100.00
2022-08-14T05:03:25.383Z,100.00
2022-08-14T05:05:29.887Z,100.00
2022-08-14T05:07:54.356Z,100.00
2022-08-14T05:10:01.039Z,100.00
2022-08-14T05:13:14.320Z,100.00
2022-08-14T05:14:46.641Z,100.00
2022-08-14T05:17:01.653Z,100.00
2022-08-14T05:19:17.907Z,100.00
2022-08-14T05:21:59.697Z,100.00
2022-08-14T05:23:55.646Z,100.00
2022-08-14T05:26:04.347Z,100.00
2022-08-14T05:28:16.196Z,100.00
2022-08-14T05:30:20.932Z,100.00
2022-08-14T05:32:27.653Z,100.00
2022-08-14T05:34:32.276Z,100.00
2022-08-14T05:36:40.078Z,100.00
2022-08-14T05:38:46.347Z,100.00
2022-08-14T05:40:53.484Z,100.00
2022-08-14T05:42:58.216Z,100.00
2022-08-14T05:45:05.722Z,100.00
2022-08-14T05:47:15.702Z,100.00
2022-08-14T05:49:22.628Z,100.00
2022-08-14T05:51:30.642Z,100.00
2022-08-14T05:53:34.548Z,100.00
2022-08-14T05:55:44.326Z,100.00
2022-08-14T05:57:59.928Z,100.00
2022-08-14T06:00:06.218Z,100.00
2022-08-14T06:02:12.660Z,100.00
2022-08-14T06:04:18.778Z,100.00
2022-08-14T06:06:22.307Z,100.00
2022-08-14T06:08:41.067Z,100.00
2022-08-14T06:10:46.086Z,100.00
2022-08-14T06:12:55.687Z,100.00
2022-08-14T06:15:10.151Z,100.00
2022-08-14T06:17:15.756Z,100.00
2022-08-14T06:19:29.938Z,100.00
2022-08-14T06:21:36.795Z,100.00
2022-08-14T06:23:40.746Z,100.00
2022-08-14T06:25:52.704Z,100.00
2022-08-14T06:27:57.995Z,100.00
2022-08-14T06:30:04.422Z,100.00
2022-08-14T06:32:37.915Z,100.00
2022-08-14T06:35:03.716Z,100.00
2022-08-14T06:36:58.233Z,100.00
2022-08-14T06:39:04.814Z,100.00
2022-08-14T06:41:14.218Z,100.00
2022-08-14T06:43:29.817Z,100.00
2022-08-14T06:45:37.194Z,100.00
2022-08-14T06:47:43.781Z,100.00
2022-08-14T06:49:48.643Z,100.00
2022-08-14T06:52:01.780Z,100.00
2022-08-14T06:54:05.862Z,100.00
2022-08-14T06:56:12.291Z,100.00
2022-08-14T06:58:28.972Z,100.00
2022-08-14T07:00:34.178Z,100.00
2022-08-14T07:02:56.199Z,100.00
2022-08-14T07:05:23.221Z,100.00
2022-08-14T07:07:28.627Z,100.00
2022-08-14T07:09:43.923Z,100.00
2022-08-14T07:11:54.621Z,100.00
2022-08-14T07:14:00.371Z,100.00
2022-08-14T07:16:05.495Z,100.00
2022-08-14T07:18:10.771Z,100.00
2022-08-14T07:20:14.635Z,100.00
2022-08-14T07:22:22.999Z,100.00
2022-08-14T07:24:31.392Z,100.00
2022-08-14T07:26:35.850Z,100.00
2022-08-14T07:28:43.666Z,100.00
2022-08-14T07:30:51.169Z,100.00
2022-08-14T07:32:55.517Z,100.00
2022-08-14T07:34:59.685Z,100.00
2022-08-14T07:37:03.772Z,100.00
2022-08-14T07:39:12.356Z,100.00
2022-08-14T07:41:17.050Z,100.00
2022-08-14T07:43:21.352Z,100.00
2022-08-14T07:45:25.783Z,100.00
2022-08-14T07:47:40.206Z,100.00
2022-08-14T07:49:56.142Z,100.00
2022-08-14T07:52:01.102Z,100.00
2022-08-14T07:54:11.539Z,100.00
2022-08-14T07:56:43.948Z,100.00
2022-08-14T07:58:51.710Z,100.00
2022-08-14T08:01:00.553Z,100.00
2022-08-14T08:03:05.053Z,100.00
2022-08-14T08:05:09.688Z,100.00
2022-08-14T08:07:14.801Z,100.00
2022-08-14T08:09:19.773Z,100.00
2022-08-14T08:11:28.137Z,100.00
2022-08-14T08:13:42.840Z,100.00
2022-08-14T08:16:06.214Z,100.00
2022-08-14T08:18:20.438Z,100.00
2022-08-14T08:20:31.930Z,100.00
2022-08-14T08:22:36.519Z,100.00
2022-08-14T08:24:41.599Z,100.00
2022-08-14T08:26:45.549Z,100.00
2022-08-14T08:28:59.313Z,100.00
2022-08-14T08:31:05.055Z,100.00
2022-08-14T08:33:10.079Z,100.00
2022-08-14T08:35:24.411Z,100.00
2022-08-14T08:37:30.870Z,100.00
2022-08-14T08:40:03.324Z,100.00
2022-08-14T08:42:07.868Z,100.00
2022-08-14T08:44:30.060Z,100.00
2022-08-14T08:46:36.987Z,100.00
2022-08-14T08:48:52.173Z,100.00
2022-08-14T08:50:59.604Z,100.00
2022-08-14T08:53:06.903Z,100.00
2022-08-14T08:55:10.887Z,100.00
2022-08-14T08:57:21.332Z,100.00
2022-08-14T08:59:27.043Z,100.00
2022-08-14T09:01:34.574Z,100.00
2022-08-14T09:03:43.922Z,100.00
2022-08-14T09:05:56.102Z,100.00
2022-08-14T09:08:30.764Z,100.00
2022-08-14T09:10:35.849Z,100.00
2022-08-14T09:12:40.602Z,100.00
2022-08-14T09:14:55.820Z,100.00
2022-08-14T09:17:00.916Z,100.00
2022-08-14T09:19:04.985Z,100.00
2022-08-14T09:21:09.538Z,100.00
2022-08-14T09:23:16.857Z,100.00
2022-08-14T09:25:59.971Z,100.00
2022-08-14T09:27:46.568Z,100.00
2022-08-14T09:29:54.399Z,100.00
2022-08-14T09:31:59.716Z,100.00
2022-08-14T09:34:29.505Z,100.00
2022-08-14T09:36:39.528Z,100.00
2022-08-14T09:38:56.459Z,100.00
2022-08-14T09:41:18.094Z,100.00
2022-08-14T09:43:40.190Z,100.00
2022-08-14T09:45:53.384Z,100.00
2022-08-14T09:47:58.503Z,100.00
2022-08-14T09:50:03.458Z,100.00
2022-08-14T09:52:33.132Z,100.00
2022-08-14T09:54:41.533Z,100.00
2022-08-14T09:56:46.897Z,100.00
2022-08-14T09:59:15.997Z,100.00
2022-08-14T10:01:21.050Z,100.00
2022-08-14T10:03:33.323Z,100.00
2022-08-14T10:05:44.413Z,100.00
2022-08-14T10:07:53.850Z,100.00
2022-08-14T10:10:02.380Z,100.00
2022-08-14T10:12:16.444Z,100.00
2022-08-14T10:14:34.649Z,100.00
2022-08-14T10:16:44.962Z,100.00
2022-08-14T10:18:51.836Z,100.00
2022-08-14T10:20:59.049Z,100.00
2022-08-14T10:23:16.464Z,100.00
2022-08-14T10:25:22.670Z,100.00
2022-08-14T10:27:27.330Z,100.00
2022-08-14T10:29:34.268Z,100.00
2022-08-14T10:31:44.697Z,100.00
2022-08-14T10:34:13.301Z,100.00
2022-08-14T10:36:36.812Z,100.00
2022-08-14T10:38:50.471Z,100.00
2022-08-14T10:40:59.462Z,100.00
2022-08-14T10:43:06.918Z,100.00
2022-08-14T10:45:24.379Z,100.00
2022-08-14T10:47:41.103Z,100.00
2022-08-14T10:50:00.903Z,100.00
2022-08-14T10:52:12.212Z,100.00
2022-08-14T10:54:35.543Z,100.00
2022-08-14T10:56:40.112Z,100.00
2022-08-14T10:58:43.994Z,100.00
2022-08-14T11:00:56.863Z,100.00
2022-08-14T11:03:02.644Z,100.00
2022-08-14T11:05:06.664Z,100.00
2022-08-14T11:07:19.310Z,100.00
2022-08-14T11:09:26.616Z,100.00
2022-08-14T11:11:43.908Z,100.00
2022-08-14T11:13:48.011Z,100.00
2022-08-14T11:15:52.641Z,100.00
2022-08-14T11:18:01.448Z,100.00
2022-08-14T11:20:13.996Z,100.00
2022-08-14T11:22:56.343Z,100.00
2022-08-14T11:24:57.449Z,100.00
2022-08-14T11:27:01.989Z,100.00
2022-08-14T11:29:07.800Z,100.00
2022-08-14T11:31:15.003Z,100.00
2022-08-14T11:33:32.535Z,100.00
2022-08-14T11:35:47.158Z,100.00
2022-08-14T11:38:02.768Z,100.00
2022-08-14T11:40:06.591Z,100.00
2022-08-14T11:42:57.377Z,100.00
2022-08-14T11:44:46.947Z,100.00
2022-08-14T11:46:50.699Z,100.00
2022-08-14T11:49:01.910Z,100.00
2022-08-14T11:51:13.757Z,100.00
2022-08-14T11:53:22.581Z,100.00
2022-08-14T11:55:31.095Z,100.00
2022-08-14T11:57:34.803Z,100.00
2022-08-14T11:59:44.525Z,100.00
2022-08-14T12:01:52.295Z,100.00
2022-08-14T12:03:58.260Z,100.00
2022-08-14T12:06:06.568Z,100.00
2022-08-14T12:08:34.779Z,100.00
2022-08-14T12:10:44.001Z,100.00
2022-08-14T12:12:48.025Z,100.00
2022-08-14T12:15:01.079Z,100.00
2022-08-14T12:17:12.221Z,100.00
2022-08-14T12:19:18.053Z,100.00
2022-08-14T12:21:23.164Z,100.00
2022-08-14T12:23:30.654Z,100.00
2022-08-14T12:25:36.327Z,100.00
2022-08-14T12:27:41.768Z,100.00
2022-08-14T12:29:54.621Z,100.00
2022-08-14T12:32:04.850Z,100.00
2022-08-14T12:34:10.554Z,100.00
2022-08-14T12:36:23.595Z,100.00
2022-08-14T12:38:50.419Z,100.00
2022-08-14T12:40:57.926Z,100.00
2022-08-14T12:43:07.464Z,100.00
2022-08-14T12:45:17.227Z,100.00
2022-08-14T12:47:32.438Z,100.00
2022-08-14T12:49:36.993Z,100.00
2022-08-14T12:51:42.174Z,100.00
2022-08-14T12:53:47.349Z,100.00
2022-08-14T12:56:21.691Z,100.00
2022-08-14T12:58:35.136Z,100.00
2022-08-14T13:01:16.176Z,100.00
2022-08-14T13:03:27.942Z,100.00
2022-08-14T13:05:33.389Z,100.00
2022-08-14T13:07:39.861Z,100.00
2022-08-14T13:09:44.178Z,100.00
2022-08-14T13:11:59.302Z,100.00
2022-08-14T13:14:23.496Z,100.00
2022-08-14T13:16:39.549Z,100.00
2022-08-14T13:18:46.598Z,100.00
2022-08-14T13:20:57.669Z,100.00
2022-08-14T13:23:04.066Z,100.00
2022-08-14T13:25:08.370Z,100.00
2022-08-14T13:27:13.886Z,100.00
2022-08-14T13:29:21.960Z,100.00
2022-08-14T13:31:30.133Z,100.00
2022-08-14T13:33:35.842Z,100.00
2022-08-14T13:35:39.651Z,100.00
2022-08-14T13:37:45.380Z,97.37
2022-08-14T13:39:57.368Z,97.42
2022-08-14T13:42:04.699Z,97.32
2022-08-14T13:44:13.866Z,94.77
2022-08-14T13:46:27.848Z,94.85
2022-08-14T13:48:36.319Z,92.60
2022-08-14T13:50:41.393Z,91.80
2022-08-14T13:52:55.043Z,90.64
2022-08-14T13:55:00.420Z,90.07
2022-08-14T13:57:06.973Z,88.57
2022-08-14T13:59:20.114Z,88.93
2022-08-14T14:01:27.421Z,86.21
2022-08-14T14:03:32.417Z,83.89
2022-08-14T14:05:53.022Z,83.89
2022-08-14T14:08:01.490Z,82.13
2022-08-14T14:10:07.888Z,83.82
2022-08-14T14:12:38.354Z,81.69
2022-08-14T14:14:51.565Z,83.05
2022-08-14T14:16:58.999Z,80.32
2022-08-14T14:19:09.588Z,81.59
2022-08-14T14:21:14.649Z,79.07
2022-08-14T14:23:19.413Z,79.32
2022-08-14T14:25:23.883Z,76.08
2022-08-14T14:27:41.012Z,77.24
2022-08-14T14:29:55.705Z,78.02
2022-08-14T14:32:02.962Z,75.21
2022-08-14T14:34:07.494Z,75.09
2022-08-14T14:36:21.000Z,74.69
2022-08-14T14:38:27.644Z,73.57
2022-08-14T14:40:53.881Z,71.17
2022-08-14T14:43:05.534Z,69.71
2022-08-14T14:45:16.248Z,67.78
2022-08-14T14:47:23.415Z,67.52
2022-08-14T14:49:42.013Z,68.67
2022-08-14T14:51:54.422Z,66.29
2022-08-14T14:53:59.659Z,66.85
2022-08-14T14:56:47.583Z,64.59
2022-08-14T14:58:31.781Z,63.76
2022-08-14T15:00:35.936Z,63.80
2022-08-14T15:02:42.280Z,64.79
2022-08-14T15:04:47.366Z,62.98
2022-08-14T15:06:53.677Z,60.07
2022-08-14T15:09:00.152Z,59.96
2022-08-14T15:11:04.350Z,58.79
2022-08-14T15:13:17.829Z,57.43
2022-08-14T15:15:22.728Z,54.11
2022-08-14T15:17:35.183Z,54.80
2022-08-14T15:19:56.933Z,54.41
2022-08-14T15:22:01.399Z,53.92
2022-08-14T15:24:05.208Z,53.79
2022-08-14T15:26:31.269Z,53.90
2022-08-14T15:28:39.262Z,49.75
2022-08-14T15:30:44.287Z,52.25
2022-08-14T15:32:48.281Z,50.83
2022-08-14T15:34:53.149Z,50.28
2022-08-14T15:36:56.754Z,52.58
2022-08-14T15:39:01.771Z,49.43
2022-08-14T15:41:08.510Z,49.88
2022-08-14T15:43:13.349Z,48.55
2022-08-14T15:45:18.171Z,50.05
2022-08-14T15:47:28.500Z,48.47
2022-08-14T15:49:39.745Z,49.74
2022-08-14T15:51:43.745Z,49.57
2022-08-14T15:53:47.621Z,48.24
2022-08-14T15:55:55.815Z,48.55
2022-08-14T15:58:03.091Z,46.47
2022-08-14T16:00:40.678Z,44.82
2022-08-14T16:02:48.331Z,47.53
2022-08-14T16:04:52.279Z,45.53
2022-08-14T16:06:57.918Z,46.69
2022-08-14T16:09:11.028Z,45.73
2022-08-14T16:11:16.350Z,48.41
2022-08-14T16:13:41.279Z,49.14
2022-08-14T16:15:52.994Z,47.17
2022-08-14T16:17:57.555Z,48.33
2022-08-14T16:20:03.551Z,46.43
2022-08-14T16:23:00.317Z,42.75
2022-08-14T16:25:02.069Z,43.02
2022-08-14T16:27:01.428Z,46.39
2022-08-14T16:29:08.506Z,45.05
2022-08-14T16:31:15.560Z,44.74
2022-08-14T16:33:56.524Z,42.12
2022-08-14T16:35:55.408Z,47.67
2022-08-14T16:38:19.875Z,44.52
2022-08-14T16:43:03.198Z,44.69
2022-08-14T16:45:02.281Z,42.60
2022-08-14T16:47:07.548Z,41.80
2022-08-14T16:49:11.866Z,41.58
2022-08-14T16:51:19.041Z,42.98
2022-08-14T16:53:26.556Z,42.24
2022-08-14T16:55:31.281Z,41.86
2022-08-14T16:57:53.569Z,45.68
2022-08-14T17:00:00.210Z,42.28
2022-08-14T17:02:04.979Z,45.98
2022-08-14T17:04:24.939Z,43.54
2022-08-14T17:06:37.970Z,44.07
2022-08-14T17:08:46.475Z,42.77
2022-08-14T17:10:53.499Z,43.42
2022-08-14T17:13:18.689Z,44.92
2022-08-14T17:15:22.766Z,40.19
2022-08-14T17:17:28.735Z,40.59
2022-08-14T17:19:41.301Z,42.46
2022-08-14T17:21:46.957Z,42.46
2022-08-14T17:23:56.389Z,41.70
2022-08-14T17:25:59.962Z,42.94
2022-08-14T17:28:52.130Z,39.58
2022-08-14T17:30:54.840Z,43.05
2022-08-14T17:33:02.051Z,41.09
2022-08-14T17:35:10.768Z,42.01
2022-08-14T17:37:26.712Z,41.72
2022-08-14T17:39:40.089Z,42.81
2022-08-14T17:42:02.959Z,39.76
2022-08-14T17:44:14.267Z,42.55
2022-08-14T17:46:35.550Z,44.16
2022-08-14T17:49:14.168Z,38.71
2022-08-14T17:51:05.963Z,39.72
2022-08-14T17:53:10.920Z,40.31
2022-08-14T17:56:01.184Z,40.61
2022-08-14T17:57:42.146Z,38.87
2022-08-14T17:59:49.465Z,41.02
2022-08-14T18:01:54.137Z,39.08
2022-08-14T18:04:05.575Z,37.83
2022-08-14T18:06:40.029Z,38.49
2022-08-14T18:08:50.062Z,38.63
2022-08-14T18:11:01.431Z,38.75
2022-08-14T18:13:10.791Z,42.42
2022-08-14T18:15:17.772Z,38.63
2022-08-14T18:17:23.222Z,40.73
2022-08-14T18:19:28.660Z,42.54
2022-08-14T18:21:56.597Z,39.54
2022-08-14T18:23:56.906Z,35.65
2022-08-14T18:26:04.849Z,36.50
2022-08-14T18:28:15.997Z,37.46
2022-08-14T18:30:31.800Z,40.05
2022-08-14T18:32:47.123Z,35.17
2022-08-14T18:34:53.086Z,36.95
2022-08-14T18:37:03.710Z,39.88
2022-08-14T18:40:01.732Z,37.97
2022-08-14T18:42:23.729Z,38.11
2022-08-14T18:45:12.762Z,37.79
2022-08-14T18:47:19.993Z,40.81
2022-08-14T18:49:23.753Z,38.17
2022-08-14T18:51:46.263Z,41.18
2022-08-14T18:54:01.199Z,33.34
2022-08-14T18:56:09.493Z,35.31
2022-08-14T18:58:20.800Z,37.98
2022-08-14T19:00:41.871Z,35.77
2022-08-14T19:02:46.173Z,36.37
2022-08-14T19:04:53.604Z,39.52
2022-08-14T19:07:16.299Z,37.18
2022-08-14T19:09:38.247Z,38.63
2022-08-14T19:11:43.434Z,33.40
2022-08-14T19:13:51.028Z,34.84
2022-08-14T19:16:14.337Z,35.60
2022-08-14T19:18:26.240Z,32.86
2022-08-14T19:20:52.981Z,33.66
2022-08-14T19:22:57.505Z,36.27
2022-08-14T19:25:05.038Z,33.43
2022-08-14T19:27:24.561Z,32.60
2022-08-14T19:29:35.954Z,32.94
2022-08-14T19:31:46.360Z,33.27
2022-08-14T19:34:01.455Z,34.61
2022-08-14T19:36:29.224Z,32.94
2022-08-14T19:38:59.155Z,31.24
2022-08-14T19:41:14.599Z,29.63
2022-08-14T19:43:56.330Z,30.34
2022-08-14T19:45:57.047Z,33.55
2022-08-14T19:48:01.042Z,38.50
2022-08-14T19:50:24.613Z,32.45
2022-08-14T19:52:37.363Z,32.32
2022-08-14T19:54:43.758Z,35.04
2022-08-14T19:56:47.649Z,35.27
2022-08-14T19:58:54.208Z,33.36
2022-08-14T20:01:00.160Z,30.88
2022-08-14T20:03:10.861Z,32.67
2022-08-14T20:05:23.097Z,30.30
2022-08-14T20:07:58.807Z,31.53
2022-08-14T20:11:11.614Z,30.42
2022-08-14T20:12:35.012Z,31.22
2022-08-14T20:14:42.599Z,33.85
2022-08-14T20:17:04.657Z,32.06
2022-08-14T20:19:11.175Z,30.68
2022-08-14T20:21:38.340Z,29.41
2022-08-14T20:24:30.494Z,30.29
2022-08-14T20:26:36.796Z,29.29
2022-08-14T20:28:51.440Z,29.44
2022-08-14T20:31:37.887Z,34.74
2022-08-14T20:34:05.989Z,30.05
2022-08-14T20:36:25.947Z,28.33
2022-08-14T20:38:33.720Z,31.64
2022-08-14T20:40:50.534Z,28.43
2022-08-14T20:43:14.230Z,28.23
2022-08-14T20:45:24.961Z,29.39
2022-08-14T20:47:48.381Z,27.51
2022-08-14T20:50:17.139Z,28.74
2022-08-14T20:52:30.125Z,31.62
2022-08-14T20:54:36.351Z,31.35
2022-08-14T20:56:42.478Z,25.89
2022-08-14T20:58:46.457Z,26.60
2022-08-14T21:01:01.444Z,26.54
2022-08-14T21:03:23.638Z,26.33
2022-08-14T21:05:33.833Z,27.60
2022-08-14T21:07:40.638Z,28.06
2022-08-14T21:10:06.317Z,28.74
2022-08-14T21:12:34.074Z,27.32
2022-08-14T21:14:38.921Z,29.13
2022-08-14T21:16:58.337Z,26.17
2022-08-14T21:19:03.854Z,27.86
2022-08-14T21:21:09.641Z,26.34
2022-08-14T21:23:15.245Z,28.75
2022-08-14T21:25:20.773Z,26.93
2022-08-14T21:27:25.810Z,26.45
2022-08-14T21:29:31.026Z,28.05
2022-08-14T21:31:35.068Z,25.24
2022-08-14T21:33:43.077Z,27.30
2022-08-14T21:35:47.696Z,27.00
2022-08-14T21:38:00.941Z,27.37
2022-08-14T21:40:39.933Z,26.20
2022-08-14T21:42:32.067Z,24.85
2022-08-14T21:44:43.313Z,24.22
2022-08-14T21:46:53.987Z,25.71
2022-08-14T21:48:57.768Z,24.58
2022-08-14T21:51:54.373Z,23.79
2022-08-14T21:53:33.866Z,23.95
2022-08-14T21:55:38.497Z,24.62
2022-08-14T21:58:46.010Z,23.88
2022-08-14T22:00:30.382Z,24.02
2022-08-14T22:02:42.232Z,23.69
2022-08-14T22:04:58.092Z,24.91
2022-08-14T22:07:03.983Z,24.50
2022-08-14T22:09:11.004Z,25.10
2022-08-14T22:11:15.396Z,25.16
2022-08-14T22:13:21.648Z,24.62
2022-08-14T22:15:26.605Z,24.42
2022-08-14T22:17:35.189Z,23.59
2022-08-14T22:19:47.172Z,23.86
2022-08-14T22:21:58.777Z,24.23
2022-08-14T22:24:10.584Z,25.18
2022-08-14T22:26:21.783Z,23.08
2022-08-14T22:28:32.977Z,23.81
2022-08-14T22:30:38.204Z,24.22
2022-08-14T22:32:56.384Z,23.29
2022-08-14T22:35:26.453Z,25.82
2022-08-14T22:37:33.033Z,25.04
2022-08-14T22:39:40.415Z,23.77
2022-08-14T22:42:20.995Z,24.21
2022-08-14T22:44:29.035Z,24.01
2022-08-14T22:46:33.606Z,23.74
2022-08-14T22:48:38.947Z,25.50
2022-08-14T22:50:53.407Z,23.89
2022-08-14T22:53:00.972Z,25.11
2022-08-14T22:55:06.176Z,23.61
2022-08-14T22:57:10.709Z,24.16
2022-08-14T22:59:14.781Z,25.42
2022-08-14T23:01:21.932Z,24.24
2022-08-14T23:03:26.732Z,24.96
2022-08-14T23:05:39.830Z,25.37
2022-08-14T23:08:57.017Z,27.07
2022-08-14T23:10:31.824Z,27.48
2022-08-14T23:12:42.299Z,27.96
2022-08-14T23:14:45.912Z,28.47
2022-08-14T23:16:49.776Z,29.64
2022-08-14T23:19:00.923Z,28.91
2022-08-14T23:21:05.123Z,31.09
2022-08-14T23:23:22.807Z,30.31
2022-08-14T23:25:53.163Z,31.32
2022-08-14T23:28:02.892Z,31.34
2022-08-14T23:30:31.825Z,31.54
2022-08-14T23:32:40.662Z,31.97
2022-08-14T23:34:47.835Z,33.74
2022-08-14T23:36:57.389Z,32.28
2022-08-14T23:39:01.461Z,32.69
2022-08-14T23:41:09.951Z,33.20
2022-08-14T23:43:17.406Z,33.50
2022-08-14T23:45:36.076Z,33.34
2022-08-14T23:47:51.784Z,33.93
2022-08-14T23:50:04.360Z,34.70
2022-08-14T23:52:55.996Z,34.16
2022-08-14T23:54:49.444Z,34.85
2022-08-14T23:57:02.499Z,35.85
2022-08-14T23:59:07.778Z,35.84
